Time;durP1;ratioP1;P1;durP2;ratioP2;P2;SDS_P1;SDS_P2;PMS_P1;PMS_P2;Temp;Humidity;BMP_temperature;BMP_pressure;BME280_temperature;BME280_humidity;BME280_pressure;Samples;Min_cycle;Max_cycle;Signal;HPM_P1;HPM_P2
2023/04/06 00:02:07;;;;;;;11.23;6.07;;;3.60;99.90;;;;;;5071857;28;20396;-59
2023/04/06 00:04:32;;;;;;;12.82;5.95;;;3.50;99.90;;;;;;5073295;28;20032;-59
2023/04/06 00:06:58;;;;;;;11.85;6.10;;;3.50;99.90;;;;;;5073076;28;20515;-59
2023/04/06 00:09:24;;;;;;;11.00;6.30;;;3.60;99.90;;;;;;5072993;28;20037;-58
2023/04/06 00:11:49;;;;;;;10.27;6.43;;;3.60;99.90;;;;;;5071588;28;20438;-58
2023/04/06 00:14:17;;;;;;;11.57;5.50;;;3.50;99.90;;;;;;5073135;28;20044;-59
2023/04/06 00:16:42;;;;;;;10.80;6.50;;;3.50;99.90;;;;;;5072880;28;20121;-58
2023/04/06 00:19:08;;;;;;;9.77;6.00;;;3.50;99.90;;;;;;5071655;28;20504;-58
2023/04/06 00:21:34;;;;;;;12.13;6.45;;;3.50;99.90;;;;;;5072729;28;20035;-59
2023/04/06 00:23:59;;;;;;;11.38;6.18;;;3.50;99.90;;;;;;5072769;28;20527;-59
2023/04/06 00:26:25;;;;;;;13.32;6.55;;;3.40;99.90;;;;;;5072584;28;20033;-59
2023/04/06 00:28:52;;;;;;;10.95;6.05;;;3.40;99.90;;;;;;5072797;28;20040;-58
2023/04/06 00:31:17;;;;;;;11.88;5.95;;;3.40;99.90;;;;;;5071256;28;20044;-59
2023/04/06 00:33:43;;;;;;;12.13;6.93;;;3.40;99.90;;;;;;5071252;28;20059;-59
2023/04/06 00:36:09;;;;;;;10.25;6.28;;;3.30;99.90;;;;;;5072490;28;20480;-58
2023/04/06 00:38:34;;;;;;;11.85;6.80;;;3.40;99.90;;;;;;5072460;28;20095;-59
2023/04/06 00:41:00;;;;;;;13.75;7.70;;;3.30;99.90;;;;;;5071067;28;20044;-57
2023/04/06 00:43:26;;;;;;;10.63;6.30;;;3.30;99.90;;;;;;5072232;28;20079;-59
2023/04/06 00:45:52;;;;;;;11.38;6.80;;;3.30;99.90;;;;;;5072510;28;20040;-59
2023/04/06 00:48:18;;;;;;;11.13;6.78;;;3.30;99.90;;;;;;5072282;28;20036;-59
2023/04/06 00:50:43;;;;;;;13.30;6.97;;;3.20;99.90;;;;;;5072363;28;20186;-59
2023/04/06 00:53:09;;;;;;;11.45;6.35;;;3.20;99.90;;;;;;5071109;28;20067;-56
2023/04/06 00:55:35;;;;;;;11.02;6.32;;;3.20;99.90;;;;;;5071905;28;20110;-58
2023/04/06 00:58:02;;;;;;;13.85;7.78;;;3.10;99.90;;;;;;5072208;28;20123;-58
2023/04/06 01:00:27;;;;;;;12.52;6.75;;;3.20;99.90;;;;;;5071171;28;20041;-59
2023/04/06 01:02:53;;;;;;;12.93;7.25;;;3.10;99.90;;;;;;5070813;28;20056;-57
2023/04/06 01:05:19;;;;;;;14.02;7.22;;;3.10;99.90;;;;;;5071970;28;20070;-59
2023/04/06 01:07:45;;;;;;;11.25;6.90;;;3.00;99.90;;;;;;5072168;28;20044;-58
2023/04/06 01:10:21;;;;;;;12.23;7.28;;;3.10;99.90;;;;;;5071185;28;20109;-56
2023/04/06 01:12:47;;;;;;;11.52;6.80;;;3.00;99.90;;;;;;5072237;28;20055;-58
2023/04/06 01:15:13;;;;;;;12.43;6.80;;;2.90;99.90;;;;;;5072103;28;20048;-59
2023/04/06 01:17:40;;;;;;;12.10;6.68;;;2.90;99.90;;;;;;5072128;28;20079;-58
2023/04/06 01:20:06;;;;;;;12.00;6.78;;;2.90;99.90;;;;;;5072171;28;20051;-58
2023/04/06 01:22:32;;;;;;;14.23;6.93;;;2.90;99.90;;;;;;5071853;28;20044;-56
2023/04/06 01:24:58;;;;;;;12.32;6.85;;;2.90;99.90;;;;;;5072366;28;20389;-57
2023/04/06 01:27:26;;;;;;;12.15;6.60;;;2.90;99.90;;;;;;5072243;28;20033;-58
2023/04/06 01:29:51;;;;;;;13.85;7.80;;;2.90;99.90;;;;;;5070752;28;20045;-57
2023/04/06 01:32:17;;;;;;;13.02;7.20;;;2.90;99.90;;;;;;5072110;28;20037;-58
2023/04/06 01:34:43;;;;;;;11.43;7.20;;;2.90;99.90;;;;;;5071941;28;20453;-58
2023/04/06 01:37:08;;;;;;;12.38;6.80;;;2.90;99.90;;;;;;5071847;28;20045;-58
2023/04/06 01:39:34;;;;;;;11.63;7.18;;;2.90;99.90;;;;;;5072103;28;20124;-58
2023/04/06 01:42:00;;;;;;;12.10;7.20;;;2.90;99.90;;;;;;5071861;28;20634;-58
2023/04/06 01:44:25;;;;;;;11.30;6.93;;;2.90;99.90;;;;;;5070608;28;20126;-57
2023/04/06 01:46:51;;;;;;;10.93;7.28;;;2.80;99.90;;;;;;5071986;28;20045;-58
2023/04/06 01:49:17;;;;;;;12.77;7.03;;;2.90;99.90;;;;;;5071704;28;20114;-59
2023/04/06 01:51:42;;;;;;;12.52;8.13;;;2.90;99.90;;;;;;5071684;28;20056;-56
2023/04/06 01:54:08;;;;;;;13.73;7.28;;;2.80;99.90;;;;;;5071664;28;20041;-59
2023/04/06 01:56:34;;;;;;;10.88;6.82;;;2.90;99.90;;;;;;5071552;28;20060;-56
2023/04/06 01:59:00;;;;;;;11.50;6.75;;;2.80;99.90;;;;;;5070426;28;20528;-58
2023/04/06 02:01:26;;;;;;;11.63;6.35;;;2.80;99.90;;;;;;5071866;28;20028;-59
2023/04/06 02:03:51;;;;;;;12.48;6.75;;;2.80;99.90;;;;;;5071702;28;20095;-58
2023/04/06 02:06:17;;;;;;;13.07;7.22;;;2.80;99.90;;;;;;5071579;28;20056;-59
2023/04/06 02:08:43;;;;;;;12.38;7.68;;;2.80;99.90;;;;;;5071750;28;20051;-59
2023/04/06 02:11:09;;;;;;;12.68;6.55;;;2.70;99.90;;;;;;5071516;28;20074;-58
2023/04/06 02:13:34;;;;;;;11.52;6.72;;;2.80;99.90;;;;;;5071457;28;20048;-55
2023/04/06 02:16:02;;;;;;;12.15;7.28;;;2.80;99.90;;;;;;5071556;28;20052;-58
2023/04/06 02:18:28;;;;;;;13.27;6.97;;;2.70;99.90;;;;;;5070312;28;20048;-57
2023/04/06 02:20:54;;;;;;;12.15;6.65;;;2.70;99.90;;;;;;5072221;28;20044;-59
2023/04/06 02:23:19;;;;;;;10.20;6.43;;;2.60;99.90;;;;;;5075140;28;20059;-60
2023/04/06 02:25:45;;;;;;;12.27;6.40;;;2.70;99.90;;;;;;5075347;28;20043;-59
2023/04/06 02:28:11;;;;;;;11.07;7.15;;;2.60;99.90;;;;;;5075082;28;20048;-58
2023/04/06 02:30:37;;;;;;;13.52;7.82;;;2.60;99.90;;;;;;5075190;28;20046;-57
2023/04/06 02:33:03;;;;;;;12.70;7.18;;;2.60;99.90;;;;;;5075252;28;20396;-58
2023/04/06 02:35:30;;;;;;;10.48;6.82;;;2.60;99.90;;;;;;5074862;28;20051;-58
2023/04/06 02:37:56;;;;;;;12.48;7.05;;;2.50;99.90;;;;;;5074944;28;20051;-55
2023/04/06 02:40:21;;;;;;;13.88;7.57;;;2.60;99.90;;;;;;5074973;28;20036;-58
2023/04/06 02:42:47;;;;;;;13.00;7.25;;;2.50;99.90;;;;;;5075101;28;20463;-58
2023/04/06 02:45:13;;;;;;;12.38;7.22;;;2.50;99.90;;;;;;5074647;28;20040;-58
2023/04/06 02:47:39;;;;;;;10.23;6.70;;;2.50;99.90;;;;;;5074767;28;20086;-55
2023/04/06 02:50:05;;;;;;;12.93;7.35;;;2.50;99.90;;;;;;5074600;28;20078;-59
2023/04/06 02:52:31;;;;;;;12.07;7.25;;;2.40;99.90;;;;;;5074907;28;20040;-57
2023/04/06 02:54:57;;;;;;;13.63;7.38;;;2.40;99.90;;;;;;5074574;28;20067;-58
2023/04/06 02:57:22;;;;;;;12.38;6.88;;;2.40;99.90;;;;;;5073045;28;20048;-59
2023/04/06 02:59:48;;;;;;;10.63;7.05;;;2.40;99.90;;;;;;5074585;28;20043;-57
2023/04/06 03:02:14;;;;;;;11.90;7.13;;;2.40;99.90;;;;;;5074613;28;20047;-58
2023/04/06 03:04:40;;;;;;;11.77;6.65;;;2.40;99.90;;;;;;5073246;28;20048;-59
2023/04/06 03:07:05;;;;;;;11.85;6.78;;;2.50;99.90;;;;;;5074741;28;20431;-59
2023/04/06 03:09:31;;;;;;;12.80;6.97;;;2.50;99.90;;;;;;5074637;28;20056;-58
2023/04/06 03:11:57;;;;;;;11.77;7.05;;;2.50;99.90;;;;;;5074270;28;20044;-58
2023/04/06 03:14:23;;;;;;;14.13;6.95;;;2.50;99.90;;;;;;5074378;28;20072;-59
2023/04/06 03:16:49;;;;;;;11.13;7.05;;;2.50;99.90;;;;;;5074330;28;20085;-58
2023/04/06 03:19:15;;;;;;;12.43;7.55;;;2.40;99.90;;;;;;5074255;28;20083;-57
2023/04/06 03:21:41;;;;;;;11.75;6.85;;;2.40;99.90;;;;;;5074133;28;20124;-58
2023/04/06 03:24:07;;;;;;;12.00;7.72;;;2.40;99.90;;;;;;5074301;28;20054;-58
2023/04/06 03:26:33;;;;;;;12.40;7.13;;;2.40;99.90;;;;;;5074157;28;20055;-59
2023/04/06 03:28:59;;;;;;;12.25;7.13;;;2.40;99.90;;;;;;5074164;28;20413;-57
2023/04/06 03:31:26;;;;;;;12.82;7.95;;;2.40;99.90;;;;;;5074091;28;20045;-57
2023/04/06 03:33:52;;;;;;;11.77;7.07;;;2.40;99.90;;;;;;5072967;28;20040;-57
2023/04/06 03:36:18;;;;;;;13.52;7.65;;;2.40;99.90;;;;;;5072543;28;20373;-58
2023/04/06 03:38:43;;;;;;;11.95;7.72;;;2.40;99.90;;;;;;5073902;28;20048;-59
2023/04/06 03:41:09;;;;;;;11.45;7.38;;;2.30;99.90;;;;;;5073803;28;20090;-58
2023/04/06 03:43:35;;;;;;;14.57;7.95;;;2.30;99.90;;;;;;5073803;28;20108;-56
2023/04/06 03:46:01;;;;;;;12.75;8.13;;;2.20;99.90;;;;;;5073462;28;20443;-57
2023/04/06 03:48:27;;;;;;;12.52;7.22;;;2.20;99.90;;;;;;5073510;28;20051;-58
2023/04/06 03:50:52;;;;;;;13.05;7.78;;;2.20;99.90;;;;;;5073530;28;20476;-56
2023/04/06 03:53:18;;;;;;;14.13;7.50;;;2.20;99.90;;;;;;5073790;28;20086;-58
2023/04/06 03:55:44;;;;;;;12.07;7.38;;;2.10;99.90;;;;;;5073302;28;20141;-58
2023/04/06 03:58:10;;;;;;;14.48;7.55;;;2.20;99.90;;;;;;5071990;28;20095;-59
2023/04/06 04:00:36;;;;;;;12.70;7.80;;;2.20;99.90;;;;;;5072345;28;20044;-58
2023/04/06 04:03:02;;;;;;;13.18;7.35;;;2.20;99.90;;;;;;5072056;28;20040;-56
2023/04/06 04:05:28;;;;;;;13.25;7.45;;;2.10;99.90;;;;;;5073317;28;20388;-58
2023/04/06 04:07:55;;;;;;;12.90;7.50;;;2.10;99.90;;;;;;5073553;28;20412;-59
2023/04/06 04:10:20;;;;;;;12.00;7.38;;;2.10;99.90;;;;;;5073272;28;20045;-59
2023/04/06 04:12:46;;;;;;;11.43;6.95;;;2.10;99.90;;;;;;5073300;28;20101;-59
2023/04/06 04:15:12;;;;;;;14.05;8.43;;;2.10;99.90;;;;;;5071847;28;20434;-58
2023/04/06 04:17:37;;;;;;;12.43;7.30;;;2.10;99.90;;;;;;5073079;28;20055;-58
2023/04/06 04:20:04;;;;;;;14.95;7.32;;;2.00;99.90;;;;;;5073229;28;20072;-56
2023/04/06 04:22:29;;;;;;;13.98;7.40;;;2.00;99.90;;;;;;5071588;28;20042;-58
2023/04/06 04:24:55;;;;;;;12.60;7.68;;;2.00;99.90;;;;;;5073097;28;20092;-59
2023/04/06 04:27:21;;;;;;;12.68;7.57;;;2.00;99.90;;;;;;5071585;28;20044;-57
2023/04/06 04:29:47;;;;;;;10.80;6.75;;;2.00;99.90;;;;;;5071566;28;20058;-55
2023/04/06 04:32:13;;;;;;;12.82;6.53;;;1.90;99.90;;;;;;5072816;28;20037;-57
2023/04/06 04:34:41;;;;;;;11.57;7.00;;;1.90;99.90;;;;;;5073119;28;20102;-57
2023/04/06 04:37:07;;;;;;;10.60;6.82;;;1.90;99.90;;;;;;5072750;28;20048;-57
2023/04/06 04:39:32;;;;;;;12.07;7.03;;;1.80;99.90;;;;;;5071368;28;20053;-57
2023/04/06 04:41:58;;;;;;;13.15;7.18;;;1.80;99.90;;;;;;5072643;28;20028;-58
2023/04/06 04:44:24;;;;;;;12.48;6.50;;;1.90;99.90;;;;;;5072125;28;20040;-56
2023/04/06 04:46:50;;;;;;;12.77;6.80;;;1.90;99.90;;;;;;5072274;28;20032;-56
2023/04/06 04:49:15;;;;;;;11.68;6.63;;;1.90;99.90;;;;;;5070508;28;20101;-54
2023/04/06 04:51:41;;;;;;;11.95;6.53;;;1.80;99.90;;;;;;5071288;28;20273;-57
2023/04/06 04:54:07;;;;;;;13.98;7.03;;;1.90;99.90;;;;;;5072085;28;20044;-54
2023/04/06 04:56:32;;;;;;;12.15;6.72;;;2.00;99.90;;;;;;5071765;28;20091;-57
2023/04/06 04:58:58;;;;;;;12.20;6.80;;;1.90;99.90;;;;;;5072222;28;20044;-57
2023/04/06 05:01:24;;;;;;;11.55;7.10;;;1.80;99.90;;;;;;5070720;28;20040;-56
2023/04/06 05:03:50;;;;;;;14.15;6.63;;;1.90;99.90;;;;;;5069317;28;20040;-57
2023/04/06 05:06:15;;;;;;;12.10;6.55;;;1.80;99.90;;;;;;5070442;28;20060;-57
2023/04/06 05:08:42;;;;;;;12.20;6.75;;;1.90;99.90;;;;;;5070597;28;20048;-57
2023/04/06 05:11:08;;;;;;;11.00;6.57;;;1.90;99.90;;;;;;5070394;28;20040;-56
2023/04/06 05:13:34;;;;;;;12.63;6.70;;;1.80;99.90;;;;;;5070574;28;20122;-57
2023/04/06 05:16:00;;;;;;;12.07;6.75;;;1.90;99.90;;;;;;5070294;28;20166;-57
2023/04/06 05:18:26;;;;;;;11.32;6.85;;;1.90;99.90;;;;;;5070347;28;20344;-56
2023/04/06 05:20:51;;;;;;;11.05;6.45;;;1.90;99.90;;;;;;5070780;28;20517;-56
2023/04/06 05:23:17;;;;;;;11.02;6.70;;;1.90;99.90;;;;;;5070169;28;20048;-56
2023/04/06 05:25:43;;;;;;;11.32;6.68;;;1.90;99.90;;;;;;5068957;28;20417;-57
2023/04/06 05:28:09;;;;;;;10.52;6.50;;;1.90;99.90;;;;;;5070711;28;20123;-57
2023/04/06 05:30:35;;;;;;;11.77;6.68;;;1.90;99.90;;;;;;5070268;28;20051;-57
2023/04/06 05:33:02;;;;;;;10.90;5.88;;;1.90;99.90;;;;;;5068899;28;20164;-58
2023/04/06 05:35:27;;;;;;;11.80;6.55;;;1.90;99.90;;;;;;5070299;28;20044;-59
2023/04/06 05:37:53;;;;;;;11.07;6.90;;;1.90;99.90;;;;;;5070159;28;20109;-57
2023/04/06 05:40:19;;;;;;;11.00;7.32;;;1.90;99.90;;;;;;5070290;28;20059;-57
2023/04/06 05:42:45;;;;;;;10.70;6.90;;;1.90;99.90;;;;;;5070191;28;20495;-58
2023/04/06 05:45:16;;;;;;;12.35;7.15;;;1.90;99.90;;;;;;5070139;28;20476;-56
2023/04/06 05:47:42;;;;;;;11.25;6.70;;;1.90;99.90;;;;;;5069978;28;20044;-58
2023/04/06 05:50:08;;;;;;;11.02;6.90;;;1.90;99.90;;;;;;5070209;28;20039;-58
2023/04/06 05:52:34;;;;;;;12.73;6.53;;;2.00;99.90;;;;;;5070104;28;20120;-58
2023/04/06 05:54:59;;;;;;;11.73;6.90;;;2.00;99.90;;;;;;5068973;28;20040;-58
2023/04/06 05:57:25;;;;;;;13.18;7.00;;;2.10;99.90;;;;;;5073033;28;20060;-58
2023/04/06 05:59:51;;;;;;;11.38;6.38;;;2.00;99.90;;;;;;5074200;28;20040;-56
2023/04/06 06:02:17;;;;;;;10.43;6.50;;;2.10;99.90;;;;;;5073998;28;20404;-57
2023/04/06 06:04:43;;;;;;;11.35;7.18;;;2.10;99.90;;;;;;5056021;28;20487;-57
2023/04/06 06:07:08;;;;;;;11.70;7.20;;;2.10;99.90;;;;;;5073921;28;20101;-59
2023/04/06 06:09:34;;;;;;;12.73;6.97;;;2.20;99.90;;;;;;5073857;28;20417;-61
2023/04/06 06:12:02;;;;;;;12.35;7.20;;;2.20;99.90;;;;;;5072256;28;20043;-58
2023/04/06 06:14:28;;;;;;;11.77;7.65;;;2.30;99.90;;;;;;5073365;28;20110;-58
2023/04/06 06:16:54;;;;;;;13.77;7.18;;;2.40;99.90;;;;;;5072385;28;20392;-59
2023/04/06 06:19:20;;;;;;;15.23;7.57;;;2.40;99.90;;;;;;5072316;28;20068;-58
2023/04/06 06:21:46;;;;;;;11.48;7.18;;;2.50;99.90;;;;;;5071647;28;20428;-54
2023/04/06 06:24:11;;;;;;;14.43;7.85;;;2.60;99.90;;;;;;5072808;28;20120;-57
2023/04/06 06:26:39;;;;;;;12.15;8.43;;;2.60;99.90;;;;;;5073276;28;20110;-57
2023/04/06 06:29:05;;;;;;;12.07;7.22;;;2.70;99.90;;;;;;5061599;28;20540;-57
2023/04/06 06:31:31;;;;;;;12.52;7.75;;;2.90;99.90;;;;;;5062271;28;20086;-57
2023/04/06 06:33:57;;;;;;;12.80;7.60;;;2.90;99.90;;;;;;5062420;28;20036;-58
2023/04/06 06:36:23;;;;;;;12.27;7.50;;;2.90;99.90;;;;;;5061211;28;20048;-57
2023/04/06 06:38:48;;;;;;;12.60;7.40;;;3.00;99.90;;;;;;5065301;28;20040;-58
2023/04/06 06:41:14;;;;;;;12.15;6.97;;;3.10;99.90;;;;;;5073089;28;20056;-57
2023/04/06 06:43:40;;;;;;;13.60;7.22;;;3.20;99.90;;;;;;5073271;28;20047;-58
2023/04/06 06:46:06;;;;;;;12.93;7.40;;;3.30;99.90;;;;;;5073433;28;20481;-57
2023/04/06 06:48:31;;;;;;;15.77;7.82;;;3.30;99.90;;;;;;5072904;28;20051;-56
2023/04/06 06:50:57;;;;;;;12.98;7.28;;;3.40;99.90;;;;;;5072855;28;20070;-57
2023/04/06 06:53:23;;;;;;;14.98;7.90;;;3.50;99.90;;;;;;5072819;28;20040;-58
2023/04/06 06:55:49;;;;;;;13.20;8.00;;;3.50;99.90;;;;;;5072823;28;20094;-57
2023/04/06 06:58:18;;;;;;;14.82;7.95;;;3.70;99.90;;;;;;5063459;28;20526;-57
2023/04/06 07:00:43;;;;;;;13.13;7.95;;;3.60;99.90;;;;;;5073359;28;20048;-56
2023/04/06 07:03:09;;;;;;;12.63;8.13;;;3.70;99.90;;;;;;5072814;28;20032;-58
2023/04/06 07:05:35;;;;;;;12.48;7.88;;;3.80;99.90;;;;;;5071734;28;20133;-57
2023/04/06 07:08:01;;;;;;;13.60;8.00;;;3.80;99.90;;;;;;5071450;28;20045;-58
2023/04/06 07:10:27;;;;;;;16.23;8.13;;;3.90;99.90;;;;;;5069428;28;20040;-57
2023/04/06 07:12:52;;;;;;;13.00;7.78;;;4.00;99.90;;;;;;5072828;28;20040;-56
2023/04/06 07:15:18;;;;;;;16.30;8.20;;;4.00;99.90;;;;;;5072588;28;20044;-57
2023/04/06 07:17:46;;;;;;;12.85;7.88;;;4.10;99.90;;;;;;5070869;28;20473;-58
2023/04/06 07:20:13;;;;;;;14.68;8.07;;;4.20;99.90;;;;;;5072160;28;20056;-59
2023/04/06 07:22:39;;;;;;;14.48;8.57;;;4.30;99.90;;;;;;5071723;28;20484;-56
2023/04/06 07:25:05;;;;;;;13.27;8.00;;;4.30;99.90;;;;;;5071836;28;20047;-57
2023/04/06 07:27:32;;;;;;;14.85;8.70;;;4.40;99.90;;;;;;5072362;28;20447;-57
2023/04/06 07:29:57;;;;;;;13.18;8.68;;;4.60;99.90;;;;;;5069739;28;20131;-58
2023/04/06 07:32:23;;;;;;;13.25;8.00;;;4.70;99.90;;;;;;5070652;28;20128;-57
2023/04/06 07:34:49;;;;;;;14.05;8.60;;;4.80;99.90;;;;;;5072500;28;20044;-55
2023/04/06 07:37:14;;;;;;;15.50;8.50;;;4.90;99.90;;;;;;5070324;28;20590;-56
2023/04/06 07:39:40;;;;;;;14.20;8.45;;;5.00;99.90;;;;;;5072792;28;20059;-58
2023/04/06 07:42:06;;;;;;;13.93;8.38;;;5.20;99.90;;;;;;5073786;28;20119;-58
2023/04/06 07:44:31;;;;;;;13.60;8.50;;;5.30;99.90;;;;;;5073680;28;20036;-56
2023/04/06 07:46:57;;;;;;;12.85;8.45;;;5.30;99.90;;;;;;5073843;28;20032;-58
2023/04/06 07:49:23;;;;;;;13.25;8.30;;;5.50;99.90;;;;;;5073212;28;20044;-55
2023/04/06 07:51:49;;;;;;;12.18;8.10;;;5.60;99.90;;;;;;5073302;28;20037;-58
2023/04/06 07:54:14;;;;;;;13.57;8.82;;;5.80;99.90;;;;;;5073326;28;20048;-57
2023/04/06 07:56:40;;;;;;;13.88;8.35;;;5.80;99.90;;;;;;5073350;28;20060;-58
2023/04/06 07:59:06;;;;;;;15.32;8.32;;;6.00;99.90;;;;;;5073424;28;20045;-58
2023/04/06 08:01:32;;;;;;;15.40;8.43;;;6.10;99.90;;;;;;5073386;28;20105;-58
2023/04/06 08:03:58;;;;;;;12.00;7.70;;;6.20;99.90;;;;;;5073154;28;20488;-57
2023/04/06 08:06:23;;;;;;;13.02;7.55;;;6.30;99.90;;;;;;5072974;28;20051;-58
2023/04/06 08:08:49;;;;;;;14.38;8.35;;;6.40;99.90;;;;;;5072168;28;20385;-57
2023/04/06 08:11:15;;;;;;;15.63;8.65;;;6.50;99.90;;;;;;5073222;28;20119;-58
2023/04/06 08:13:41;;;;;;;15.88;9.00;;;6.60;99.90;;;;;;5073056;28;20471;-58
2023/04/06 08:16:07;;;;;;;15.02;8.85;;;6.70;99.90;;;;;;5072941;28;20405;-58
2023/04/06 08:18:33;;;;;;;16.30;9.10;;;6.80;99.90;;;;;;5072643;28;20059;-58
2023/04/06 08:20:59;;;;;;;12.88;8.27;;;7.00;99.90;;;;;;5072922;28;20497;-59
2023/04/06 08:23:25;;;;;;;15.77;9.25;;;7.10;99.90;;;;;;5073129;28;20119;-56
2023/04/06 08:25:53;;;;;;;14.18;8.68;;;7.30;99.90;;;;;;5072944;28;20043;-58
2023/04/06 08:28:18;;;;;;;16.00;9.57;;;7.30;99.90;;;;;;5072689;28;20049;-57
2023/04/06 08:30:44;;;;;;;14.20;9.50;;;7.50;99.90;;;;;;5072703;28;20040;-58
2023/04/06 08:33:11;;;;;;;14.25;8.95;;;7.60;99.90;;;;;;5072703;28;20480;-56
2023/04/06 08:35:36;;;;;;;14.77;8.48;;;7.80;99.90;;;;;;5072413;28;20473;-58
2023/04/06 08:38:02;;;;;;;14.80;8.18;;;8.00;99.90;;;;;;5072415;28;20037;-58
2023/04/06 08:40:28;;;;;;;13.40;7.97;;;8.10;99.90;;;;;;5072434;28;20477;-59
2023/04/06 08:43:01;;;;;;;14.35;8.35;;;8.10;99.90;;;;;;5072636;28;20025;-58
2023/04/06 08:45:27;;;;;;;16.10;8.93;;;8.30;99.90;;;;;;5072510;28;20048;-58
2023/04/06 08:47:56;;;;;;;14.50;8.45;;;8.40;99.90;;;;;;5072223;28;20039;-58
2023/04/06 08:50:23;;;;;;;13.63;8.13;;;8.50;99.90;;;;;;5072156;28;20071;-55
2023/04/06 08:52:49;;;;;;;14.20;8.50;;;8.60;99.90;;;;;;5072314;28;20033;-57
2023/04/06 08:55:16;;;;;;;16.10;8.95;;;8.60;99.90;;;;;;5072131;28;20117;-57
2023/04/06 08:57:42;;;;;;;14.38;8.13;;;8.80;99.90;;;;;;5072182;28;20063;-57
2023/04/06 09:00:11;;;;;;;13.18;8.52;;;9.00;99.90;;;;;;5072069;28;20045;-58
2023/04/06 09:02:43;;;;;;;13.27;8.30;;;9.00;99.90;;;;;;5072163;28;20036;-59
2023/04/06 09:05:09;;;;;;;;;;;9.10;99.90;;;;;;5072415;28;20088;-57
2023/04/06 09:07:36;;;;;;;15.18;8.68;;;9.20;99.90;;;;;;5072108;28;19924;-59
2023/04/06 09:10:06;;;;;;;17.05;9.05;;;9.30;99.90;;;;;;5070657;28;20049;-58
2023/04/06 09:12:32;;;;;;;14.85;8.93;;;9.50;99.90;;;;;;5072082;28;20044;-58
2023/04/06 09:14:59;;;;;;;13.88;8.68;;;9.40;99.10;;;;;;5072043;28;20032;-58
2023/04/06 09:17:32;;;;;;;15.38;9.40;;;9.30;99.90;;;;;;5071811;28;20079;-59
2023/04/06 09:19:59;;;;;;;15.05;8.52;;;9.40;99.90;;;;;;5070634;28;20044;-58
2023/04/06 09:22:26;;;;;;;14.43;9.43;;;9.50;99.40;;;;;;5071582;28;20496;-61
2023/04/06 09:24:53;;;;;;;16.85;8.73;;;9.50;98.70;;;;;;5070493;28;20049;-60
2023/04/06 09:27:32;;;;;;;15.57;9.18;;;9.40;98.80;;;;;;5071993;28;20071;-58
2023/04/06 09:30:06;;;;;;;14.75;8.88;;;9.40;98.20;;;;;;5071322;28;20041;-57
2023/04/06 09:32:32;;;;;;;15.73;9.27;;;9.50;98.30;;;;;;5071635;28;20434;-59
2023/04/06 09:35:08;;;;;;;13.15;9.38;;;9.60;99.40;;;;;;5071686;28;20388;-58
2023/04/06 09:37:35;;;;;;;13.80;8.77;;;9.50;98.60;;;;;;5071888;28;20397;-58
2023/04/06 09:40:08;;;;;;;15.10;9.52;;;9.60;99.40;;;;;;5071703;28;20468;-59
2023/04/06 09:42:35;;;;;;;14.00;9.40;;;9.60;98.70;;;;;;5071696;28;20040;-59
2023/04/06 09:45:02;;;;;;;17.83;9.90;;;9.70;99.30;;;;;;5071721;28;20123;-58
2023/04/06 09:47:30;;;;;;;20.15;10.30;;;9.70;98.60;;;;;;5071572;28;20056;-59
2023/04/06 09:49:58;;;;;;;21.08;11.65;;;9.80;99.10;;;;;;5071504;28;20075;-58
2023/04/06 09:52:33;;;;;;;20.67;11.50;;;9.80;97.50;;;;;;5070453;28;20386;-57
2023/04/06 09:55:09;;;;;;;17.75;10.93;;;9.80;98.40;;;;;;5071321;28;20033;-59
2023/04/06 09:57:50;;;;;;;17.70;11.18;;;9.90;98.40;;;;;;5071338;28;20048;-59
2023/04/06 10:00:20;;;;;;;22.75;11.82;;;10.00;98.20;;;;;;5071511;28;20044;-58
2023/04/06 10:03:10;;;;;;;20.20;11.38;;;10.00;98.40;;;;;;5071297;28;20174;-59
2023/04/06 10:05:50;;;;;;;19.95;11.95;;;10.20;99.40;;;;;;5071310;28;20032;-59
2023/04/06 10:08:18;;;;;;;18.75;11.18;;;10.30;98.60;;;;;;5071389;28;20040;-47
2023/04/06 10:10:44;;;;;;;20.50;11.27;;;10.30;98.30;;;;;;5071388;28;20033;-47
2023/04/06 10:13:11;;;;;;;19.23;12.02;;;10.30;98.30;;;;;;5071335;28;20040;-46
2023/04/06 10:15:40;;;;;;;19.45;11.88;;;10.40;97.50;;;;;;5071355;28;20393;-45
2023/04/06 10:18:07;;;;;;;19.15;11.10;;;10.60;97.10;;;;;;5070302;28;20492;-46
2023/04/06 10:21:20;;;;;;;20.33;11.85;;;10.60;97.90;;;;;;5071455;28;20086;-49
2023/04/06 10:23:57;;;;;;;20.70;13.02;;;10.70;96.80;;;;;;5067244;28;20489;-45
2023/04/06 10:26:23;;;;;;;18.80;11.50;;;10.90;96.50;;;;;;5071188;28;20041;-46
2023/04/06 10:28:50;;;;;;;20.20;12.18;;;11.00;96.80;;;;;;5071333;28;20036;-46
2023/04/06 10:31:25;;;;;;;21.15;12.10;;;10.90;95.90;;;;;;5071081;28;20516;-45
2023/04/06 10:33:55;;;;;;;19.85;12.20;;;11.00;95.50;;;;;;5071295;28;20544;-45
2023/04/06 10:36:23;;;;;;;20.60;13.18;;;11.20;96.80;;;;;;5070912;28;20105;-46
2023/04/06 10:38:56;;;;;;;21.77;13.65;;;11.50;96.50;;;;;;5071183;28;20045;-45
2023/04/06 10:41:22;;;;;;;24.63;13.82;;;11.50;96.50;;;;;;5071087;28;20460;-47
2023/04/06 10:43:56;;;;;;;21.60;14.35;;;11.60;96.80;;;;;;5073481;28;20040;-45
2023/04/06 10:46:26;;;;;;;26.30;14.48;;;11.50;96.80;;;;;;5074547;28;20063;-45
2023/04/06 10:48:52;;;;;;;21.83;13.90;;;11.40;96.30;;;;;;5074346;28;20083;-44
2023/04/06 10:51:20;;;;;;;23.38;14.93;;;11.40;95.90;;;;;;5074146;28;20453;-46
2023/04/06 10:53:48;;;;;;;25.50;15.90;;;11.30;95.60;;;;;;5074138;28;20396;-44
2023/04/06 10:56:16;;;;;;;28.83;16.70;;;11.40;96.60;;;;;;5074442;28;20127;-46
2023/04/06 10:58:49;;;;;;;29.52;17.65;;;11.30;95.60;;;;;;5074238;28;20394;-45
2023/04/06 11:01:23;;;;;;;27.13;17.30;;;11.40;95.20;;;;;;5074481;28;20048;-47
2023/04/06 11:03:51;;;;;;;30.58;18.98;;;11.50;95.10;;;;;;5074274;28;20446;-46
2023/04/06 11:06:19;;;;;;;29.42;18.10;;;11.50;95.00;;;;;;5074156;28;20477;-47
2023/04/06 11:08:45;;;;;;;31.38;19.42;;;11.50;95.60;;;;;;5074414;28;20382;-45
2023/04/06 11:11:18;;;;;;;31.13;20.98;;;11.60;95.80;;;;;;5074220;28;20051;-45
2023/04/06 11:13:48;;;;;;;34.30;19.40;;;11.60;95.30;;;;;;5074245;28;20032;-45
2023/04/06 11:16:33;;;;;;;32.47;19.90;;;11.70;93.90;;;;;;5073822;28;20682;-45
2023/04/06 11:19:00;;;;;;;32.70;19.23;;;11.90;94.70;;;;;;5074247;28;20449;-45
2023/04/06 11:21:39;;;;;;;31.50;20.05;;;12.00;94.70;;;;;;5074106;28;20036;-46
2023/04/06 11:24:09;;;;;;;30.15;19.08;;;12.00;95.10;;;;;;5073436;28;20044;-48
2023/04/06 11:26:41;;;;;;;33.88;20.75;;;12.20;96.50;;;;;;5073727;28;20392;-46
2023/04/06 11:29:07;;;;;;;32.60;20.20;;;12.30;95.40;;;;;;5074029;28;20049;-49
2023/04/06 11:31:50;;;;;;;33.10;21.98;;;12.20;94.50;;;;;;5073485;28;20062;-44
2023/04/06 11:34:19;;;;;;;33.55;22.27;;;12.20;94.60;;;;;;5073451;28;20044;-45
2023/04/06 11:36:46;;;;;;;37.15;23.25;;;12.30;94.40;;;;;;5072230;28;20109;-44
2023/04/06 11:39:23;;;;;;;33.58;21.45;;;12.40;95.20;;;;;;5072852;28;20063;-44
2023/04/06 11:42:00;;;;;;;29.58;19.45;;;12.50;94.80;;;;;;5071945;28;20040;-44
2023/04/06 11:44:35;;;;;;;34.88;21.95;;;12.50;94.40;;;;;;5072928;28;20039;-46
2023/04/06 11:47:03;;;;;;;31.73;20.20;;;12.50;94.90;;;;;;5072992;28;20452;-44
2023/04/06 11:49:30;;;;;;;30.92;20.15;;;12.50;94.30;;;;;;5073163;28;20048;-46
2023/04/06 11:51:57;;;;;;;30.90;19.80;;;12.40;94.60;;;;;;5071702;28;20083;-45
2023/04/06 11:54:35;;;;;;;31.30;19.35;;;12.50;95.80;;;;;;5072653;28;20045;-44
2023/04/06 11:57:02;;;;;;;31.35;20.48;;;12.50;94.30;;;;;;5071724;28;20064;-45
2023/04/06 11:59:28;;;;;;;30.70;20.20;;;12.40;94.20;;;;;;5073227;28;20477;-45
2023/04/06 12:01:54;;;;;;;31.05;18.80;;;12.40;92.60;;;;;;5073118;28;20111;-46
2023/04/06 12:04:20;;;;;;;33.42;20.73;;;12.30;93.20;;;;;;5073068;28;20389;-46
2023/04/06 12:06:46;;;;;;;29.20;18.77;;;12.20;93.30;;;;;;5073117;28;20049;-46
2023/04/06 12:09:12;;;;;;;28.48;19.42;;;12.20;94.00;;;;;;5071614;28;20055;-47
2023/04/06 12:11:37;;;;;;;31.83;20.17;;;12.30;94.50;;;;;;5072993;28;20083;-45
2023/04/06 12:14:05;;;;;;;30.02;20.02;;;12.30;94.20;;;;;;5072971;28;20044;-45
2023/04/06 12:16:34;;;;;;;33.63;20.63;;;12.20;93.60;;;;;;5072839;28;20037;-45
2023/04/06 12:19:01;;;;;;;31.50;21.05;;;12.10;93.70;;;;;;5072742;28;20063;-46
2023/04/06 12:21:36;;;;;;;29.88;20.05;;;12.00;93.60;;;;;;5072676;28;20101;-46
2023/04/06 12:24:02;;;;;;;29.98;19.98;;;12.10;93.60;;;;;;5072751;28;20041;-45
2023/04/06 12:26:29;;;;;;;30.45;19.30;;;12.10;94.10;;;;;;5072279;28;20125;-46
2023/04/06 12:28:55;;;;;;;33.40;21.15;;;12.10;94.30;;;;;;5072605;28;20040;-45
2023/04/06 12:31:22;;;;;;;31.90;21.45;;;12.00;94.60;;;;;;5071383;28;20051;-47
2023/04/06 12:33:49;;;;;;;33.83;20.35;;;12.10;93.90;;;;;;5066214;28;20072;-46
2023/04/06 12:36:20;;;;;;;32.42;21.52;;;11.90;93.80;;;;;;5061222;28;20033;-53
2023/04/06 12:38:51;;;;;;;31.13;21.43;;;12.00;94.80;;;;;;5062287;28;20044;-47
2023/04/06 12:41:17;;;;;;;34.72;20.73;;;11.90;94.70;;;;;;5058555;28;20036;-45
2023/04/06 12:43:44;;;;;;;36.78;22.88;;;11.90;94.10;;;;;;5051905;28;20492;-45